Time;durP1;ratioP1;P1;durP2;ratioP2;P2;SDS_P1;SDS_P2;PMS_P1;PMS_P2;Temp;Humidity;BMP_temperature;BMP_pressure;BME280_temperature;BME280_humidity;BME280_pressure;Samples;Min_cycle;Max_cycle;Signal;HPM_P1;HPM_P2
2022/01/02 00:01:36;;;;;;;12.07;6.07;;;13.20;99.90;;;;;;5055367;28;20481;-80
2022/01/02 00:04:03;;;;;;;12.73;7.22;;;13.10;99.90;;;;;;5078968;28;20055;-80
2022/01/02 00:06:33;;;;;;;10.75;6.40;;;13.10;99.90;;;;;;5070036;28;20044;-79
2022/01/02 00:09:06;;;;;;;10.68;6.15;;;13.20;99.90;;;;;;5056642;28;20048;-79
2022/01/02 00:11:33;;;;;;;16.55;6.90;;;13.10;99.90;;;;;;5071899;28;20046;-79
2022/01/02 00:14:08;;;;;;;11.15;6.20;;;13.10;99.90;;;;;;5069835;28;20132;-79
2022/01/02 00:16:37;;;;;;;10.38;6.45;;;13.10;99.90;;;;;;5087097;28;20048;-79
2022/01/02 00:19:16;;;;;;;10.93;6.28;;;13.10;99.90;;;;;;5074760;28;20055;-79
2022/01/02 00:21:45;;;;;;;10.45;6.57;;;13.00;99.90;;;;;;5073415;28;20048;-79
2022/01/02 00:24:16;;;;;;;11.38;6.68;;;13.10;99.90;;;;;;5093877;28;20048;-77
2022/01/02 00:26:45;;;;;;;10.90;6.73;;;13.10;99.90;;;;;;5078563;28;20462;-80
2022/01/02 00:29:12;;;;;;;14.38;6.72;;;13.00;99.90;;;;;;5066030;28;20046;-80
2022/01/02 00:31:39;;;;;;;10.55;7.00;;;13.00;99.90;;;;;;5070953;28;20051;-77
2022/01/02 00:34:07;;;;;;;17.20;7.22;;;13.00;99.90;;;;;;5071358;28;20043;-77
2022/01/02 00:36:33;;;;;;;14.05;6.70;;;13.10;99.90;;;;;;5072856;28;20148;-77
2022/01/02 00:38:59;;;;;;;11.45;6.43;;;13.10;99.90;;;;;;5071997;28;20047;-77
2022/01/02 00:41:35;;;;;;;14.50;6.72;;;13.10;99.90;;;;;;5054610;28;20055;-79
2022/01/02 00:44:19;;;;;;;13.85;6.57;;;13.10;99.90;;;;;;5074352;28;20047;-78
2022/01/02 00:46:55;;;;;;;12.93;6.88;;;13.10;99.90;;;;;;5071773;28;20039;-78
2022/01/02 00:49:26;;;;;;;14.73;7.00;;;13.10;99.90;;;;;;5060740;28;20166;-78
2022/01/02 00:52:18;;;;;;;11.10;6.18;;;13.10;99.90;;;;;;5056066;28;20052;-78
2022/01/02 00:54:46;;;;;;;14.77;7.03;;;13.10;99.90;;;;;;5070241;28;20064;-78
2022/01/02 00:57:17;;;;;;;13.02;7.15;;;13.10;99.90;;;;;;5075110;28;20036;-78
2022/01/02 00:59:48;;;;;;;13.05;6.78;;;13.20;99.90;;;;;;5077578;28;20493;-78
2022/01/02 01:02:18;;;;;;;13.20;7.50;;;13.10;99.90;;;;;;5061781;28;20044;-79
2022/01/02 01:04:46;;;;;;;11.90;6.20;;;13.10;99.90;;;;;;5055042;28;20055;-78
2022/01/02 01:07:13;;;;;;;18.13;7.25;;;13.20;99.90;;;;;;5072514;28;20055;-78
2022/01/02 01:09:40;;;;;;;11.25;7.05;;;13.20;99.90;;;;;;5074268;28;20059;-78
2022/01/02 01:12:10;;;;;;;17.55;7.32;;;13.20;99.90;;;;;;5089963;28;20051;-78
2022/01/02 01:14:35;;;;;;;10.88;6.45;;;13.30;99.90;;;;;;5075470;28;20070;-79
2022/01/02 01:17:01;;;;;;;17.67;7.18;;;13.20;99.90;;;;;;5074370;28;20509;-79
2022/01/02 01:19:27;;;;;;;20.33;8.02;;;13.30;99.90;;;;;;5079128;28;20537;-78
2022/01/02 01:21:53;;;;;;;12.60;6.30;;;13.20;99.90;;;;;;5072037;28;20134;-78
2022/01/02 01:24:19;;;;;;;12.43;5.90;;;13.30;99.90;;;;;;5060967;28;20074;-78
2022/01/02 01:26:52;;;;;;;15.90;7.25;;;13.30;99.90;;;;;;5048901;28;20040;-78
2022/01/02 01:29:18;;;;;;;15.43;7.28;;;13.30;99.90;;;;;;5042225;28;20056;-78
2022/01/02 01:31:46;;;;;;;14.52;7.35;;;13.40;99.90;;;;;;5043426;28;20178;-78
2022/01/02 01:34:11;;;;;;;15.45;7.10;;;13.30;99.90;;;;;;5055910;28;20048;-78
2022/01/02 01:36:37;;;;;;;15.90;7.20;;;13.40;99.90;;;;;;5055909;28;20493;-78
2022/01/02 01:39:03;;;;;;;14.98;7.72;;;13.30;99.90;;;;;;5043135;28;20048;-78
2022/01/02 01:41:34;;;;;;;11.52;6.32;;;13.30;99.90;;;;;;5058721;28;20510;-78
2022/01/02 01:44:28;;;;;;;14.77;6.43;;;13.40;99.90;;;;;;5059077;28;20443;-78
2022/01/02 01:46:48;;;;;;;18.30;7.38;;;13.40;99.90;;;;;;5064254;28;20056;-78
2022/01/02 01:49:24;;;;;;;13.50;7.78;;;13.40;99.90;;;;;;5089170;28;20060;-78
2022/01/02 01:51:50;;;;;;;16.00;7.85;;;13.40;99.90;;;;;;5045758;28;20484;-78
2022/01/02 01:54:16;;;;;;;16.10;6.68;;;13.40;99.90;;;;;;5047559;28;20057;-78
2022/01/02 01:56:42;;;;;;;14.05;6.32;;;13.40;99.90;;;;;;5051677;28;20396;-78
2022/01/02 01:59:08;;;;;;;19.20;7.97;;;13.40;99.90;;;;;;5051981;28;20123;-78
2022/01/02 02:01:34;;;;;;;18.33;6.93;;;13.40;99.90;;;;;;5068831;28;20568;-78
2022/01/02 02:04:00;;;;;;;14.45;7.40;;;13.40;99.90;;;;;;5076528;28;20071;-78
2022/01/02 02:06:26;;;;;;;17.80;8.20;;;13.40;99.90;;;;;;5043208;28;20481;-78
2022/01/02 02:08:56;;;;;;;18.90;8.32;;;13.40;99.90;;;;;;5064404;28;20054;-78
2022/01/02 02:11:23;;;;;;;16.20;7.60;;;13.30;99.90;;;;;;5059345;28;20047;-78
2022/01/02 02:13:49;;;;;;;20.10;8.65;;;13.40;99.90;;;;;;5036007;28;20106;-78
2022/01/02 02:16:15;;;;;;;19.98;8.45;;;13.40;99.90;;;;;;5061570;28;20044;-78
2022/01/02 02:18:41;;;;;;;16.75;8.15;;;13.40;99.90;;;;;;5055167;28;20621;-78
2022/01/02 02:21:07;;;;;;;25.85;8.38;;;13.50;99.90;;;;;;5038488;28;20052;-79
2022/01/02 02:23:32;;;;;;;17.45;8.60;;;13.50;99.90;;;;;;5043996;28;20057;-78
2022/01/02 02:25:58;;;;;;;17.52;7.95;;;13.50;99.90;;;;;;5081882;28;20412;-78
2022/01/02 02:28:27;;;;;;;19.25;7.43;;;13.50;99.90;;;;;;5094524;28;20044;-79
2022/01/02 02:30:53;;;;;;;17.90;8.55;;;13.50;99.90;;;;;;5010221;28;20075;-79
2022/01/02 02:33:20;;;;;;;20.13;9.07;;;13.50;99.90;;;;;;5056147;28;20452;-78
2022/01/02 02:35:48;;;;;;;23.42;9.48;;;13.50;99.90;;;;;;5068812;28;20048;-78
2022/01/02 02:38:16;;;;;;;20.77;10.30;;;13.50;99.90;;;;;;5049725;28;20048;-78
2022/01/02 02:40:42;;;;;;;18.17;8.95;;;13.50;99.90;;;;;;5045105;28;20107;-78
2022/01/02 02:49:13;;;;;;;16.35;8.70;;;13.50;99.90;;;;;;5063246;28;20558;-78
2022/01/02 02:51:41;;;;;;;20.00;9.38;;;13.50;99.90;;;;;;5046837;28;20047;-78
2022/01/02 02:54:08;;;;;;;20.13;9.68;;;13.50;99.90;;;;;;5050577;28;20127;-78
2022/01/02 02:56:54;;;;;;;22.80;10.55;;;13.50;99.90;;;;;;5067597;28;20567;-78
2022/01/02 02:59:20;;;;;;;25.48;9.65;;;13.50;99.90;;;;;;5067309;28;20052;-78
2022/01/02 03:01:46;;;;;;;19.27;9.73;;;13.50;99.90;;;;;;5048147;28;20477;-78
2022/01/02 03:04:12;;;;;;;21.70;10.45;;;13.50;99.90;;;;;;5067108;28;20048;-79
2022/01/02 03:06:37;;;;;;;20.40;9.65;;;13.40;99.90;;;;;;5070890;28;20063;-78
2022/01/02 03:09:08;;;;;;;17.45;10.00;;;13.40;99.90;;;;;;5058579;28;20049;-78
2022/01/02 03:11:36;;;;;;;24.17;10.15;;;13.50;99.90;;;;;;5054030;28;20169;-78
2022/01/02 03:14:04;;;;;;;22.75;8.60;;;13.50;99.90;;;;;;5059129;28;20047;-78
2022/01/02 03:16:29;;;;;;;20.65;9.18;;;13.50;99.90;;;;;;5051578;28;20051;-78
2022/01/02 03:18:55;;;;;;;23.65;9.68;;;13.40;99.90;;;;;;5071887;28;20049;-78
2022/01/02 03:21:22;;;;;;;24.08;9.32;;;13.50;99.90;;;;;;5061145;28;20480;-77
2022/01/02 03:23:48;;;;;;;18.60;9.82;;;13.50;99.90;;;;;;5059075;28;20381;-77
2022/01/02 03:26:14;;;;;;;26.10;10.60;;;13.50;99.90;;;;;;5055362;28;20463;-78
2022/01/02 03:28:40;;;;;;;18.70;9.35;;;13.40;99.90;;;;;;5065626;28;20122;-78
2022/01/02 03:31:06;;;;;;;22.05;9.80;;;13.50;99.90;;;;;;5045869;28;20041;-78
2022/01/02 03:33:32;;;;;;;20.20;10.88;;;13.50;99.90;;;;;;5074499;28;20072;-78
2022/01/02 03:35:59;;;;;;;21.35;10.45;;;13.50;99.90;;;;;;5068610;28;20040;-78
2022/01/02 03:38:25;;;;;;;22.50;11.10;;;13.50;99.90;;;;;;5048508;28;20501;-78
2022/01/02 03:40:51;;;;;;;25.40;11.52;;;13.50;99.90;;;;;;5040279;28;20087;-78
2022/01/02 03:43:19;;;;;;;22.95;11.02;;;13.50;99.90;;;;;;5069306;28;20127;-78
2022/01/02 03:45:45;;;;;;;19.83;10.60;;;13.60;99.90;;;;;;5059015;28;20135;-78
2022/01/02 03:48:11;;;;;;;25.38;12.52;;;13.60;99.90;;;;;;5071014;28;20052;-78
2022/01/02 03:50:37;;;;;;;22.60;11.27;;;13.50;99.90;;;;;;5038728;28;20048;-78
2022/01/02 03:53:03;;;;;;;27.23;11.50;;;13.60;99.90;;;;;;5047424;28;20047;-78
2022/01/02 03:55:29;;;;;;;26.58;12.18;;;13.60;99.90;;;;;;5060287;28;20127;-78
2022/01/02 03:57:55;;;;;;;24.55;12.10;;;13.60;99.90;;;;;;5071272;28;20127;-78
2022/01/02 04:00:20;;;;;;;23.60;11.57;;;13.60;99.90;;;;;;5061749;28;20048;-78
2022/01/02 04:02:46;;;;;;;28.90;12.10;;;13.60;99.90;;;;;;5055905;28;20040;-78
2022/01/02 04:05:14;;;;;;;22.95;12.25;;;13.60;99.90;;;;;;5052433;28;20048;-78
2022/01/02 04:07:41;;;;;;;26.05;11.38;;;13.60;99.90;;;;;;5043580;28;20497;-78
2022/01/02 04:10:12;;;;;;;21.73;11.05;;;13.70;99.90;;;;;;5060038;28;20040;-78
2022/01/02 04:12:39;;;;;;;20.38;11.50;;;13.60;99.90;;;;;;5063911;28;20040;-78
2022/01/02 04:15:07;;;;;;;20.02;11.13;;;13.60;99.90;;;;;;5061810;28;20044;-78
2022/01/02 04:17:34;;;;;;;23.08;11.00;;;13.70;99.90;;;;;;5044228;28;20596;-78
2022/01/02 04:20:01;;;;;;;20.08;8.85;;;13.70;99.90;;;;;;5058020;28;20071;-78
2022/01/02 04:22:27;;;;;;;24.23;11.02;;;13.70;99.90;;;;;;5058676;28;20516;-78
2022/01/02 04:24:53;;;;;;;22.20;10.45;;;13.70;99.90;;;;;;5068174;28;20076;-78
2022/01/02 04:27:20;;;;;;;20.60;10.27;;;13.70;99.90;;;;;;5050827;28;20048;-79
2022/01/02 04:29:46;;;;;;;19.63;9.98;;;13.60;99.90;;;;;;5056691;28;20052;-78
2022/01/02 04:32:12;;;;;;;24.38;10.52;;;13.70;99.90;;;;;;5050702;28;20113;-78
2022/01/02 04:34:38;;;;;;;20.65;9.60;;;13.70;99.90;;;;;;5031044;28;20049;-79
2022/01/02 04:37:05;;;;;;;20.77;9.68;;;13.70;99.90;;;;;;5033955;28;20047;-78
2022/01/02 04:39:32;;;;;;;32.92;10.70;;;13.70;99.90;;;;;;5048181;28;20080;-78
2022/01/02 04:41:58;;;;;;;23.15;9.35;;;13.80;99.90;;;;;;5042061;28;20049;-79
2022/01/02 04:44:23;;;;;;;24.77;8.85;;;13.80;99.90;;;;;;5048230;28;20048;-79
2022/01/02 04:46:49;;;;;;;25.38;10.02;;;13.80;99.90;;;;;;5038309;28;20370;-78
2022/01/02 04:49:15;;;;;;;23.65;9.70;;;13.80;99.90;;;;;;5038595;28;20106;-79
2022/01/02 04:51:41;;;;;;;21.63;9.93;;;13.90;99.90;;;;;;5038556;28;20082;-79
2022/01/02 04:54:06;;;;;;;19.30;9.23;;;13.90;99.90;;;;;;5043393;28;20045;-79
2022/01/02 04:56:32;;;;;;;15.13;6.95;;;13.90;99.90;;;;;;5035622;28;20370;-80
2022/01/02 04:58:58;;;;;;;20.77;8.30;;;13.90;99.90;;;;;;5042744;28;20417;-79
2022/01/02 05:01:24;;;;;;;18.45;7.47;;;13.90;99.90;;;;;;5049113;28;20036;-79
2022/01/02 05:03:49;;;;;;;20.85;8.23;;;13.90;99.90;;;;;;5054169;28;20086;-80
2022/01/02 05:06:15;;;;;;;24.80;8.45;;;13.80;99.90;;;;;;5039079;28;20117;-79
2022/01/02 05:08:45;;;;;;;21.10;8.90;;;13.90;99.90;;;;;;5021340;28;20048;-79
2022/01/02 05:11:11;;;;;;;23.63;8.43;;;13.90;99.90;;;;;;5052340;28;20055;-79
2022/01/02 05:13:37;;;;;;;15.45;7.22;;;13.90;99.90;;;;;;5037351;28;20497;-80
2022/01/02 05:16:03;;;;;;;21.73;8.23;;;13.90;99.90;;;;;;5055084;28;20059;-80
2022/01/02 05:18:28;;;;;;;19.23;7.20;;;13.90;99.90;;;;;;5037807;28;20052;-80
2022/01/02 05:20:54;;;;;;;22.52;8.95;;;13.90;99.90;;;;;;5053487;28;20049;-80
2022/01/02 05:23:21;;;;;;;21.88;8.80;;;13.90;99.90;;;;;;5056420;28;20060;-79
2022/01/02 05:25:48;;;;;;;22.92;8.32;;;13.90;99.90;;;;;;5060705;28;20521;-80
2022/01/02 05:28:14;;;;;;;20.92;8.25;;;14.00;99.90;;;;;;5072932;28;20050;-80
2022/01/02 05:30:41;;;;;;;20.48;8.50;;;14.00;99.90;;;;;;5064942;28;20484;-80
2022/01/02 05:33:07;;;;;;;21.67;7.32;;;13.90;99.90;;;;;;5056191;28;20036;-79
2022/01/02 05:35:33;;;;;;;21.08;8.65;;;13.90;99.90;;;;;;5063886;28;20493;-79
2022/01/02 05:38:00;;;;;;;21.00;7.57;;;13.90;99.90;;;;;;5047082;28;20043;-79
2022/01/02 05:40:32;;;;;;;15.55;7.03;;;14.00;99.90;;;;;;5064024;28;20048;-80
2022/01/02 05:43:07;;;;;;;17.40;6.35;;;14.00;99.90;;;;;;5050936;28;20504;-79
2022/01/02 05:45:33;;;;;;;18.92;6.88;;;14.00;99.90;;;;;;5058420;28;20489;-80
2022/01/02 05:47:59;;;;;;;20.05;6.50;;;14.00;99.90;;;;;;5063750;28;20044;-80
2022/01/02 05:50:24;;;;;;;20.90;7.25;;;14.00;99.90;;;;;;5047350;28;20493;-80
2022/01/02 05:52:50;;;;;;;20.60;6.88;;;14.10;99.90;;;;;;5062134;28;20089;-79
2022/01/02 05:55:16;;;;;;;19.08;6.90;;;14.00;99.90;;;;;;5068410;28;20040;-79
2022/01/02 05:57:42;;;;;;;20.17;7.32;;;14.00;99.90;;;;;;5062662;28;20037;-79
2022/01/02 06:00:09;;;;;;;20.10;7.40;;;14.00;99.90;;;;;;5081957;28;20039;-80
2022/01/02 06:02:36;;;;;;;20.67;6.80;;;14.00;99.90;;;;;;5060848;28;20056;-79
2022/01/02 06:05:03;;;;;;;14.45;5.70;;;14.00;99.90;;;;;;5089396;28;20056;-80
2022/01/02 06:07:31;;;;;;;15.63;6.78;;;14.00;99.90;;;;;;5068584;28;20115;-79
2022/01/02 06:09:57;;;;;;;15.40;6.32;;;14.00;99.90;;;;;;5062198;28;20048;-79
2022/01/02 06:12:25;;;;;;;19.67;6.95;;;14.00;99.90;;;;;;5064217;28;20048;-79
2022/01/02 06:14:51;;;;;;;20.65;5.93;;;14.10;99.90;;;;;;5040298;28;20082;-79
2022/01/02 06:17:17;;;;;;;14.73;5.60;;;14.00;99.90;;;;;;5046432;28;20037;-79
2022/01/02 06:19:43;;;;;;;17.08;6.82;;;14.00;99.90;;;;;;5034756;28;20055;-80
2022/01/02 06:22:09;;;;;;;17.98;6.32;;;14.00;99.90;;;;;;5047291;28;20489;-80
2022/01/02 06:24:34;;;;;;;17.13;7.05;;;14.00;99.90;;;;;;5043061;28;20075;-80
2022/01/02 06:27:00;;;;;;;21.25;6.50;;;13.90;99.90;;;;;;5056495;28;20142;-80
2022/01/02 06:29:26;;;;;;;24.20;6.95;;;14.00;99.90;;;;;;5069612;28;20438;-80
2022/01/02 06:31:52;;;;;;;16.33;6.35;;;14.00;99.90;;;;;;5071727;28;20104;-80
2022/01/02 06:34:17;;;;;;;19.23;6.43;;;14.00;99.90;;;;;;5055368;28;20043;-80
2022/01/02 06:36:43;;;;;;;16.70;6.38;;;14.00;99.90;;;;;;5072560;28;20101;-79
2022/01/02 06:39:09;;;;;;;19.75;5.93;;;14.00;99.90;;;;;;5073168;28;20063;-80
2022/01/02 06:41:35;;;;;;;18.98;5.93;;;14.10;99.90;;;;;;5056181;28;20044;-79
2022/01/02 06:44:01;;;;;;;24.20;6.78;;;14.10;99.90;;;;;;5072343;28;20105;-80
2022/01/02 06:46:26;;;;;;;9.13;5.32;;;14.10;99.90;;;;;;5070919;28;20511;-80
2022/01/02 06:48:52;;;;;;;17.38;7.05;;;14.10;99.90;;;;;;5073470;28;20047;-80
2022/01/02 06:51:18;;;;;;;20.08;6.75;;;14.10;99.90;;;;;;5095807;28;20080;-79
2022/01/02 06:53:43;;;;;;;16.42;6.15;;;14.20;99.90;;;;;;5081164;28;20086;-81
2022/01/02 06:56:09;;;;;;;19.70;6.97;;;14.20;99.90;;;;;;5071992;28;20043;-80
2022/01/02 06:58:38;;;;;;;19.80;6.95;;;14.30;99.90;;;;;;5070579;28;20605;-79
2022/01/02 07:01:05;;;;;;;19.75;6.25;;;14.20;99.90;;;;;;5106798;28;20048;-79
2022/01/02 07:03:31;;;;;;;18.13;5.55;;;14.30;99.90;;;;;;5089155;28;20040;-79
2022/01/02 07:05:57;;;;;;;20.23;6.45;;;14.30;99.90;;;;;;5073362;28;20097;-80
2022/01/02 07:08:22;;;;;;;13.82;5.45;;;14.40;99.90;;;;;;5074202;28;20124;-79
2022/01/02 07:10:48;;;;;;;16.85;5.45;;;14.30;99.90;;;;;;5071432;28;20040;-80
2022/01/02 07:13:14;;;;;;;14.25;4.47;;;14.30;99.90;;;;;;5071654;28;20605;-80
2022/01/02 07:15:40;;;;;;;16.05;5.43;;;14.40;99.90;;;;;;5071512;28;20123;-81
2022/01/02 07:18:05;;;;;;;15.00;5.35;;;14.40;99.90;;;;;;5073062;28;20050;-80
2022/01/02 07:20:31;;;;;;;15.73;5.47;;;14.40;99.90;;;;;;5073019;28;20499;-80
2022/01/02 07:22:57;;;;;;;12.50;4.88;;;14.40;99.90;;;;;;5068728;28;20105;-80
2022/01/02 07:25:23;;;;;;;13.23;3.55;;;14.40;99.90;;;;;;5078212;28;20048;-80
2022/01/02 07:27:48;;;;;;;12.90;4.32;;;14.50;99.90;;;;;;5071082;28;20040;-80
2022/01/02 07:30:14;;;;;;;15.75;4.32;;;14.50;99.90;;;;;;5073578;28;20077;-80
2022/01/02 07:32:40;;;;;;;11.55;4.18;;;14.50;99.90;;;;;;5065958;28;20128;-80
2022/01/02 07:35:07;;;;;;;10.13;3.97;;;14.50;99.90;;;;;;5088903;28;20043;-80
2022/01/02 07:37:36;;;;;;;12.60;3.72;;;14.50;99.90;;;;;;5071316;28;20044;-80
2022/01/02 07:40:04;;;;;;;10.65;4.25;;;14.50;99.90;;;;;;5072945;28;20050;-79
2022/01/02 07:42:30;;;;;;;11.57;4.55;;;14.40;99.90;;;;;;5057942;28;20408;-80
2022/01/02 07:44:56;;;;;;;12.30;4.35;;;14.30;99.90;;;;;;5071730;28;20051;-80
2022/01/02 07:47:22;;;;;;;13.63;4.18;;;14.30;99.90;;;;;;5070282;28;20052;-80
2022/01/02 07:49:48;;;;;;;16.35;4.47;;;14.20;99.90;;;;;;5068395;28;20044;-80
2022/01/02 07:52:13;;;;;;;11.10;3.75;;;14.20;99.90;;;;;;5070866;28;20097;-80
2022/01/02 07:54:39;;;;;;;9.32;4.53;;;14.10;99.90;;;;;;5039592;28;20420;-80
2022/01/02 07:57:05;;;;;;;14.93;4.75;;;14.20;99.90;;;;;;5066877;28;20048;-80
2022/01/02 07:59:32;;;;;;;13.05;4.60;;;14.10;99.90;;;;;;5069906;28;20059;-79
2022/01/02 08:01:58;;;;;;;11.65;4.95;;;14.00;99.90;;;;;;5072901;28;20040;-80
2022/01/02 08:04:23;;;;;;;13.90;4.55;;;14.00;99.90;;;;;;5073942;28;20424;-80
2022/01/02 08:06:49;;;;;;;9.13;4.18;;;13.90;99.90;;;;;;5059659;28;20083;-80
2022/01/02 08:09:15;;;;;;;10.00;4.13;;;13.90;99.90;;;;;;5073336;28;20047;-80
2022/01/02 08:11:41;;;;;;;8.63;4.43;;;13.90;99.90;;;;;;5076528;28;20055;-80
2022/01/02 08:14:06;;;;;;;10.30;4.70;;;13.90;99.90;;;;;;5084594;28;20462;-80
2022/01/02 08:16:33;;;;;;;13.70;4.97;;;13.80;99.90;;;;;;5060889;28;20496;-80
2022/01/02 08:19:00;;;;;;;10.80;4.72;;;13.80;99.90;;;;;;5073219;28;20488;-80
2022/01/02 08:21:25;;;;;;;11.48;4.50;;;13.80;99.90;;;;;;5080637;28;20127;-80
2022/01/02 08:23:51;;;;;;;11.48;4.18;;;13.70;99.90;;;;;;5067232;28;20140;-80
2022/01/02 08:26:17;;;;;;;12.07;4.63;;;13.80;99.90;;;;;;5086044;28;20242;-79
2022/01/02 08:28:43;;;;;;;9.55;4.93;;;13.80;99.90;;;;;;5074007;28;20107;-79
2022/01/02 08:31:08;;;;;;;13.98;5.07;;;13.90;99.90;;;;;;5071176;28;20067;-78
2022/01/02 08:33:34;;;;;;;11.07;4.93;;;13.70;99.90;;;;;;5070338;28;20044;-78
2022/01/02 08:36:00;;;;;;;9.85;4.20;;;13.60;99.90;;;;;;5072305;28;20179;-79
2022/01/02 08:38:28;;;;;;;11.10;4.97;;;13.70;99.90;;;;;;5065693;28;20044;-79
2022/01/02 08:40:54;;;;;;;10.55;4.70;;;13.60;99.90;;;;;;5070716;28;20173;-78
2022/01/02 08:43:20;;;;;;;9.55;4.68;;;13.60;99.90;;;;;;5072184;28;20492;-78
2022/01/02 08:45:45;;;;;;;10.82;4.45;;;13.50;99.90;;;;;;5060796;28;20045;-77
2022/01/02 08:48:11;;;;;;;9.43;4.28;;;13.50;99.90;;;;;;5056984;28;20370;-78
2022/01/02 08:50:37;;;;;;;11.85;5.38;;;13.50;99.90;;;;;;5059327;28;20648;-78
2022/01/02 08:53:03;;;;;;;10.57;4.20;;;13.50;99.90;;;;;;5075768;28;20400;-78
2022/01/02 08:55:29;;;;;;;12.48;4.32;;;13.50;99.90;;;;;;5063795;28;20099;-78
2022/01/02 08:57:55;;;;;;;8.07;4.03;;;13.50;99.90;;;;;;5086463;28;20130;-78
2022/01/02 09:00:21;;;;;;;12.02;5.20;;;13.50;99.90;;;;;;5066674;28;20047;-78
2022/01/02 09:02:47;;;;;;;9.32;5.30;;;13.50;99.90;;;;;;5084653;28;20032;-79
2022/01/02 09:05:13;;;;;;;12.77;5.72;;;13.40;99.90;;;;;;5075455;28;20040;-78
2022/01/02 09:07:39;;;;;;;13.48;5.25;;;13.40;99.90;;;;;;5079916;28;20367;-79
2022/01/02 09:10:05;;;;;;;12.40;5.97;;;13.40;99.90;;;;;;5082525;28;20084;-78
2022/01/02 09:12:31;;;;;;;11.90;4.40;;;13.50;99.90;;;;;;5089223;28;20039;-78
2022/01/02 09:14:56;;;;;;;16.63;5.65;;;13.50;99.90;;;;;;5069617;28;20390;-78
2022/01/02 09:17:22;;;;;;;14.57;5.65;;;13.50;99.90;;;;;;5076148;28;20086;-78
2022/01/02 09:19:49;;;;;;;12.48;5.25;;;13.50;99.90;;;;;;5089768;28;20151;-78
2022/01/02 09:22:15;;;;;;;12.00;4.90;;;13.50;99.90;;;;;;5051668;28;20113;-78
2022/01/02 09:24:40;;;;;;;8.98;5.07;;;13.60;99.90;;;;;;5076442;28;20055;-78
2022/01/02 09:27:06;;;;;;;9.00;5.10;;;13.60;99.90;;;;;;5075294;28;20439;-78
2022/01/02 09:29:32;;;;;;;12.60;4.90;;;13.60;99.90;;;;;;5075607;28;20040;-79
2022/01/02 09:31:58;;;;;;;16.42;6.15;;;13.70;99.90;;;;;;5074834;28;20441;-78
2022/01/02 09:34:24;;;;;;;13.48;4.88;;;13.70;99.90;;;;;;5072962;28;20135;-78
2022/01/02 09:36:50;;;;;;;15.45;6.47;;;13.70;99.90;;;;;;5075244;28;20040;-79
2022/01/02 09:39:15;;;;;;;10.23;6.03;;;13.70;99.90;;;;;;5097443;28;20055;-79
2022/01/02 09:41:41;;;;;;;9.63;5.72;;;13.70;99.90;;;;;;5113928;28;20069;-79
2022/01/02 09:44:07;;;;;;;14.35;5.63;;;13.80;99.90;;;;;;5093471;28;20040;-78
2022/01/02 09:46:34;;;;;;;15.65;6.15;;;13.80;99.90;;;;;;5075450;28;20076;-79
2022/01/02 09:49:03;;;;;;;14.98;7.03;;;13.80;99.90;;;;;;5074857;28;20087;-79
2022/01/02 09:51:28;;;;;;;17.20;6.30;;;13.90;99.90;;;;;;5058756;28;20055;-77
2022/01/02 09:53:56;;;;;;;18.67;7.22;;;14.00;99.90;;;;;;5057658;28;20051;-77
2022/01/02 09:56:22;;;;;;;14.23;7.05;;;13.90;99.90;;;;;;5074690;28;20044;-77
2022/01/02 09:58:49;;;;;;;14.05;7.20;;;14.00;99.90;;;;;;5069656;28;20051;-77
2022/01/02 10:01:16;;;;;;;12.57;6.90;;;14.00;99.90;;;;;;5074855;28;20052;-78
2022/01/02 10:03:51;;;;;;;13.63;6.78;;;13.90;99.90;;;;;;5080263;28;20071;-77
2022/01/02 10:06:18;;;;;;;18.42;7.00;;;14.00;99.90;;;;;;5051943;28;20047;-77
2022/01/02 10:08:45;;;;;;;17.48;7.90;;;14.00;99.90;;;;;;5074759;28;20123;-77
2022/01/02 10:11:22;;;;;;;15.65;6.43;;;13.90;99.90;;;;;;5066722;28;20059;-77
2022/01/02 10:13:47;;;;;;;14.85;6.65;;;13.90;99.90;;;;;;5075229;28;20052;-78
2022/01/02 10:16:33;;;;;;;11.18;5.85;;;13.90;99.90;;;;;;5090951;28;20397;-77
2022/01/02 10:19:16;;;;;;;13.45;6.60;;;13.80;99.90;;;;;;5075143;28;20048;-77
2022/01/02 10:21:42;;;;;;;7.35;4.63;;;13.80;99.90;;;;;;5074848;28;20040;-78
2022/01/02 10:24:21;;;;;;;10.38;4.95;;;13.90;99.90;;;;;;5091625;28;20185;-78
2022/01/02 10:27:14;;;;;;;11.15;6.18;;;13.80;99.90;;;;;;5073149;28;20076;-78
2022/01/02 10:29:41;;;;;;;12.20;6.18;;;13.80;99.90;;;;;;5071281;28;20413;-78
2022/01/02 10:32:25;;;;;;;9.60;6.30;;;13.80;99.90;;;;;;5085455;28;20059;-77
2022/01/02 10:34:52;;;;;;;10.95;6.45;;;13.70;99.90;;;;;;5058340;28;20127;-78
2022/01/02 10:37:27;;;;;;;10.98;5.85;;;13.80;99.90;;;;;;5069754;28;20505;-79
2022/01/02 10:39:53;;;;;;;13.70;5.68;;;13.70;99.90;;;;;;5071695;28;20108;-79
2022/01/02 10:42:20;;;;;;;10.23;5.30;;;13.70;99.90;;;;;;5070699;28;20048;-79
2022/01/02 10:44:52;;;;;;;12.95;6.25;;;13.70;99.90;;;;;;5109894;27;20442;-74
2022/01/02 10:47:24;;;;;;;13.10;7.75;;;13.70;99.90;;;;;;5106689;28;20048;-73
2022/01/02 10:50:08;;;;;;;9.65;5.57;;;13.60;99.90;;;;;;5076822;28;20083;-74
2022/01/02 10:52:40;;;;;;;12.55;6.05;;;13.60;99.90;;;;;;5046516;28;20051;-82
2022/01/02 10:55:15;;;;;;;13.52;7.63;;;13.60;99.90;;;;;;5071534;28;20055;-79
2022/01/02 10:57:49;;;;;;;12.80;6.38;;;13.60;99.90;;;;;;5072828;28;20394;-80
2022/01/02 11:00:16;;;;;;;14.63;9.60;;;13.50;99.90;;;;;;5091108;28;20508;-81
2022/01/02 11:02:44;;;;;;;13.32;7.00;;;13.50;99.90;;;;;;5087282;28;20142;-84
2022/01/02 11:05:18;;;;;;;18.45;7.70;;;13.50;99.90;;;;;;5071449;28;20123;-84
2022/01/02 11:07:46;;;;;;;12.10;7.63;;;13.50;99.90;;;;;;5087974;28;20051;-84
2022/01/02 11:10:21;;;;;;;21.15;9.02;;;13.50;99.90;;;;;;5108569;28;20109;-83
2022/01/02 11:12:48;;;;;;;12.15;6.53;;;13.50;99.90;;;;;;5114881;28;20696;-84
2022/01/02 11:15:24;;;;;;;16.33;7.65;;;13.50;99.90;;;;;;5088160;28;20105;-84
2022/01/02 11:17:50;;;;;;;12.75;7.40;;;13.60;99.90;;;;;;5115691;28;20489;-82
2022/01/02 11:20:19;;;;;;;13.95;6.53;;;13.50;99.90;;;;;;5070830;28;20055;-82
2022/01/02 11:22:52;;;;;;;16.65;7.65;;;13.60;99.90;;;;;;5070037;28;20044;-83
2022/01/02 11:25:42;;;;;;;11.18;6.78;;;13.50;99.90;;;;;;5088845;28;20036;-82
2022/01/02 11:28:32;;;;;;;11.73;7.60;;;13.50;99.90;;;;;;5066566;28;20491;-81
2022/01/02 11:30:58;;;;;;;16.25;5.88;;;13.60;99.90;;;;;;5055097;28;20089;-76
2022/01/02 11:33:41;;;;;;;11.13;6.28;;;13.50;99.90;;;;;;5086950;28;20380;-75
2022/01/02 11:36:34;;;;;;;7.75;5.68;;;13.40;99.90;;;;;;5067431;28;20044;-75
2022/01/02 11:39:05;;;;;;;8.32;4.70;;;13.50;99.90;;;;;;5070511;28;20097;-76
2022/01/02 11:41:37;;;;;;;9.60;5.43;;;13.50;99.90;;;;;;5076362;28;20473;-81
2022/01/02 11:44:05;;;;;;;11.68;5.60;;;13.50;99.90;;;;;;5080740;28;20082;-83
2022/01/02 11:46:33;;;;;;;10.60;5.20;;;13.40;99.90;;;;;;5090142;28;20119;-84
2022/01/02 11:49:08;;;;;;;12.65;7.10;;;13.30;99.90;;;;;;5072725;28;20537;-83
2022/01/02 11:51:51;;;;;;;8.00;4.63;;;13.30;99.90;;;;;;5089274;28;20040;-87
2022/01/02 11:54:33;;;;;;;11.48;6.15;;;13.30;99.90;;;;;;5093995;28;20105;-83
2022/01/02 11:57:26;;;;;;;11.25;6.90;;;13.30;99.90;;;;;;5062752;28;20438;-87
2022/01/02 11:59:52;;;;;;;13.35;6.93;;;13.30;99.90;;;;;;5078811;28;20511;-88
2022/01/02 12:02:18;;;;;;;13.55;6.25;;;13.20;99.90;;;;;;5083429;28;20041;-83
2022/01/02 12:04:59;;;;;;;9.25;5.90;;;13.30;99.90;;;;;;5098666;28;20094;-77
2022/01/02 12:07:34;;;;;;;9.48;6.32;;;13.20;99.90;;;;;;5095733;28;20050;-85
2022/01/02 12:10:18;;;;;;;14.40;5.78;;;13.20;99.90;;;;;;5077091;28;20384;-82
2022/01/02 12:13:06;;;;;;;11.52;5.10;;;13.20;99.90;;;;;;5074669;28;20032;-81
2022/01/02 12:15:32;;;;;;;9.27;4.80;;;13.20;99.90;;;;;;5074601;28;20044;-83
2022/01/02 12:18:12;;;;;;;13.23;4.93;;;13.20;99.90;;;;;;5075670;28;20385;-88
2022/01/02 12:20:50;;;;;;;10.53;4.60;;;13.20;99.90;;;;;;5101435;28;20056;-85
2022/01/02 12:23:40;;;;;;;5.88;3.42;;;13.20;99.90;;;;;;5069967;28;20044;-84
2022/01/02 12:26:16;;;;;;;7.43;3.72;;;13.20;99.90;;;;;;5094557;28;20048;-81
2022/01/02 12:28:44;;;;;;;7.03;3.30;;;13.30;99.90;;;;;;5060343;28;20501;-87
2022/01/02 12:31:12;;;;;;;10.57;3.70;;;13.20;99.90;;;;;;5080413;28;20074;-78
2022/01/02 12:33:39;;;;;;;7.53;3.25;;;13.20;99.90;;;;;;5099674;28;20462;-84
2022/01/02 12:36:11;;;;;;;11.75;3.80;;;13.10;99.90;;;;;;5121750;27;20040;-82
2022/01/02 12:38:54;;;;;;;10.30;2.70;;;13.10;99.90;;;;;;5074926;28;20044;-85
2022/01/02 12:41:26;;;;;;;11.20;3.00;;;13.00;99.90;;;;;;5074649;28;20068;-82
2022/01/02 12:44:00;;;;;;;14.98;3.85;;;13.00;99.90;;;;;;5090459;28;20059;-85
2022/01/02 12:46:33;;;;;;;10.80;3.25;;;13.00;99.90;;;;;;5053138;28;20048;-83
2022/01/02 12:48:59;;;;;;;9.27;3.40;;;13.00;99.90;;;;;;5103062;27;20047;-80